createdAt,value
2018-09-22T00:01:07.800Z,39.80
2018-09-22T00:03:36.646Z,41.00
2018-09-22T00:06:05.558Z,40.10
2018-09-22T00:08:34.497Z,40.20
2018-09-22T00:11:03.588Z,40.90
2018-09-22T00:13:32.494Z,40.90
2018-09-22T00:16:01.411Z,40.90
2018-09-22T00:18:30.298Z,41.60
2018-09-22T00:20:59.192Z,43.30
2018-09-22T00:23:28.093Z,44.10
2018-09-22T00:25:57.011Z,46.50
2018-09-22T00:28:25.914Z,45.60
2018-09-22T00:30:54.797Z,46.50
2018-09-22T00:33:23.684Z,46.80
2018-09-22T00:35:52.604Z,48.70
2018-09-22T00:38:21.466Z,48.70
2018-09-22T00:40:50.379Z,49.90
2018-09-22T00:43:19.273Z,50.80
2018-09-22T00:45:48.119Z,51.00
2018-09-22T00:48:17.016Z,50.20
2018-09-22T00:50:45.920Z,50.70
2018-09-22T00:53:14.824Z,50.00
2018-09-22T00:55:43.765Z,50.30
2018-09-22T00:58:12.682Z,50.00
2018-09-22T01:00:41.577Z,50.60
2018-09-22T01:03:10.435Z,50.60
2018-09-22T01:05:39.368Z,52.00
2018-09-22T01:08:08.252Z,51.70
2018-09-22T01:10:37.124Z,51.70
2018-09-22T01:13:06.123Z,51.70
2018-09-22T01:15:35.067Z,51.80
2018-09-22T01:18:03.943Z,51.50
2018-09-22T01:20:32.836Z,50.20
2018-09-22T01:23:01.760Z,48.20
2018-09-22T01:25:30.669Z,45.10
2018-09-22T01:27:59.557Z,45.30
2018-09-22T01:30:28.430Z,44.80
2018-09-22T01:32:57.342Z,43.70
2018-09-22T01:35:26.236Z,44.20
2018-09-22T01:37:55.147Z,44.90
2018-09-22T01:40:24.056Z,45.30
2018-09-22T01:42:52.928Z,45.80
2018-09-22T01:45:21.773Z,46.40
2018-09-22T01:47:50.751Z,47.40
2018-09-22T01:50:19.606Z,46.30
2018-09-22T01:52:48.568Z,46.20
2018-09-22T01:55:17.407Z,46.80
2018-09-22T01:57:46.279Z,47.20
2018-09-22T02:00:15.155Z,47.40
2018-09-22T02:02:43.988Z,47.30
2018-09-22T02:05:12.924Z,48.90
2018-09-22T02:07:41.809Z,49.20
2018-09-22T02:10:10.677Z,49.80
2018-09-22T02:12:39.597Z,50.60
2018-09-22T02:15:08.419Z,51.40
2018-09-22T02:17:37.343Z,50.80
2018-09-22T02:20:06.363Z,50.30
2018-09-22T02:22:35.282Z,49.90
2018-09-22T02:25:04.182Z,49.20
2018-09-22T02:27:33.047Z,47.70
2018-09-22T02:30:01.965Z,47.70
2018-09-22T02:32:30.856Z,47.00
2018-09-22T02:34:59.781Z,45.30
2018-09-22T02:37:28.643Z,44.40
2018-09-22T02:39:57.500Z,44.00
2018-09-22T02:42:26.416Z,43.20
2018-09-22T02:44:55.342Z,43.40
2018-09-22T02:47:24.260Z,43.40
2018-09-22T02:49:53.157Z,43.20
2018-09-22T02:52:21.991Z,43.80
2018-09-22T02:54:50.884Z,44.50
2018-09-22T02:57:19.757Z,44.20
2018-09-22T02:59:48.648Z,44.20
2018-09-22T03:02:17.612Z,44.10
2018-09-22T03:04:46.438Z,45.00
2018-09-22T03:07:15.407Z,44.60
2018-09-22T03:09:44.235Z,44.80
2018-09-22T03:12:13.201Z,44.80
2018-09-22T03:14:42.044Z,45.00
2018-09-22T03:17:11.006Z,44.60
2018-09-22T03:19:39.852Z,44.80
2018-09-22T03:22:08.865Z,45.10
2018-09-22T03:24:37.848Z,44.30
2018-09-22T03:27:06.752Z,43.80
2018-09-22T03:29:35.647Z,42.80
2018-09-22T03:32:04.504Z,41.20
2018-09-22T03:34:33.433Z,40.40
2018-09-22T03:37:02.420Z,40.40
2018-09-22T03:39:31.287Z,40.40
2018-09-22T03:42:00.134Z,40.30
2018-09-22T03:44:29.088Z,40.30
2018-09-22T03:46:58.013Z,40.30
2018-09-22T03:49:26.974Z,40.20
2018-09-22T03:51:56.009Z,40.20
2018-09-22T03:54:24.894Z,40.30
2018-09-22T03:56:53.772Z,40.20
2018-09-22T03:59:22.670Z,40.20
2018-09-22T04:01:51.527Z,39.50
2018-09-22T04:04:20.453Z,39.50
2018-09-22T04:06:49.348Z,39.40
2018-09-22T04:09:18.190Z,39.20
2018-09-22T04:11:47.084Z,38.30
2018-09-22T04:14:15.959Z,38.40
2018-09-22T04:16:44.888Z,38.70
2018-09-22T04:19:13.776Z,38.30
2018-09-22T04:21:42.648Z,38.30
2018-09-22T04:24:15.894Z,38.80
2018-09-22T04:26:45.213Z,38.50
2018-09-22T04:29:14.105Z,38.60
2018-09-22T04:31:43.046Z,39.00
2018-09-22T04:34:12.239Z,39.40
2018-09-22T04:36:41.255Z,38.90
2018-09-22T04:39:11.007Z,39.00
2018-09-22T04:41:41.518Z,38.90
2018-09-22T04:44:10.393Z,39.00
2018-09-22T04:46:39.385Z,38.80
2018-09-22T04:49:08.420Z,38.60
2018-09-22T04:51:37.319Z,38.60
2018-09-22T04:54:06.184Z,38.10
2018-09-22T04:56:35.073Z,38.10
2018-09-22T04:59:04.113Z,37.30
2018-09-22T05:01:33.076Z,36.90
2018-09-22T05:04:01.960Z,37.90
2018-09-22T05:06:30.899Z,44.70
2018-09-22T05:08:59.799Z,46.90
2018-09-22T05:11:28.679Z,44.40
2018-09-22T05:13:57.553Z,43.50
2018-09-22T05:16:26.427Z,48.80
2018-09-22T05:18:55.347Z,47.00
2018-09-22T05:21:24.232Z,50.80
2018-09-22T05:23:54.012Z,52.10
2018-09-22T05:26:22.885Z,53.50
2018-09-22T05:31:20.538Z,55.70
2018-09-22T05:33:49.436Z,55.30
2018-09-22T05:36:18.325Z,55.60
2018-09-22T05:38:47.224Z,56.20
2018-09-22T05:41:16.395Z,58.00
2018-09-22T05:43:45.308Z,59.40
2018-09-22T05:46:14.207Z,60.10
2018-09-22T05:48:43.080Z,60.60
2018-09-22T05:51:12.035Z,65.30
2018-09-22T05:53:40.908Z,66.40
2018-09-22T05:56:09.761Z,69.10
2018-09-22T05:58:38.643Z,67.50
2018-09-22T06:01:07.828Z,68.30
2018-09-22T06:03:36.719Z,66.40
2018-09-22T06:06:05.550Z,65.90
2018-09-22T06:08:34.460Z,67.50
2018-09-22T06:11:03.336Z,64.00
2018-09-22T06:13:32.197Z,65.50
2018-09-22T06:16:01.084Z,64.70
2018-09-22T06:18:29.955Z,62.90
2018-09-22T06:20:58.893Z,62.50
2018-09-22T06:23:27.795Z,60.50
2018-09-22T06:25:56.682Z,61.00
2018-09-22T06:28:25.531Z,57.80
2018-09-22T06:30:54.407Z,59.70
2018-09-22T06:33:23.360Z,57.70
2018-09-22T06:35:52.284Z,54.80
2018-09-22T06:38:21.140Z,53.90
2018-09-22T06:40:49.983Z,53.70
2018-09-22T06:43:18.890Z,53.60
2018-09-22T06:45:47.722Z,51.60
2018-09-22T06:48:16.604Z,51.50
2018-09-22T06:50:45.492Z,50.40
2018-09-22T06:53:14.461Z,48.20
2018-09-22T06:55:43.282Z,47.80
2018-09-22T06:58:12.153Z,47.40
2018-09-22T07:00:41.059Z,46.30
2018-09-22T07:03:09.928Z,44.50
2018-09-22T07:05:38.797Z,42.10
2018-09-22T07:08:07.727Z,41.90
2018-09-22T07:10:36.641Z,40.70
2018-09-22T07:13:05.525Z,39.50
2018-09-22T07:15:34.404Z,39.00
2018-09-22T07:18:03.270Z,38.30
2018-09-22T07:20:32.131Z,38.20
2018-09-22T07:23:06.356Z,36.00
2018-09-22T07:25:35.258Z,37.10
2018-09-22T07:28:04.187Z,36.00
2018-09-22T07:30:33.064Z,34.20
2018-09-22T07:33:01.986Z,34.30
2018-09-22T07:35:30.860Z,34.20
2018-09-22T07:37:59.752Z,34.70
2018-09-22T07:40:28.611Z,35.10
2018-09-22T07:42:57.481Z,34.00
2018-09-22T07:45:27.091Z,33.70
2018-09-22T07:47:56.331Z,33.80
2018-09-22T07:50:25.455Z,33.60
2018-09-22T07:52:54.356Z,32.70
2018-09-22T07:55:23.280Z,31.70
2018-09-22T07:57:52.196Z,31.10
2018-09-22T08:00:21.298Z,30.60
2018-09-22T08:02:50.180Z,28.80
2018-09-22T08:05:19.020Z,28.80
2018-09-22T08:07:47.899Z,28.40
2018-09-22T08:10:16.772Z,27.10
2018-09-22T08:12:45.754Z,26.00
2018-09-22T08:15:14.752Z,25.30
2018-09-22T08:17:43.665Z,26.20
2018-09-22T08:20:12.601Z,25.90
2018-09-22T08:22:41.523Z,26.20
2018-09-22T08:25:10.425Z,26.00
2018-09-22T08:27:39.276Z,24.60
2018-09-22T08:30:08.330Z,23.70
2018-09-22T08:32:37.549Z,23.70
2018-09-22T08:35:06.458Z,24.40
2018-09-22T08:37:35.300Z,23.90
2018-09-22T08:40:04.477Z,23.50
2018-09-22T08:42:33.335Z,23.40
2018-09-22T08:45:02.226Z,23.00
2018-09-22T08:47:31.128Z,23.00
2018-09-22T08:50:00.012Z,22.00
2018-09-22T08:52:28.890Z,22.70
2018-09-22T08:54:57.790Z,22.50
2018-09-22T08:57:26.708Z,23.00
2018-09-22T08:59:55.886Z,23.30
2018-09-22T09:02:24.772Z,23.00
2018-09-22T09:04:53.870Z,21.90
2018-09-22T09:07:22.897Z,20.90
2018-09-22T09:09:51.954Z,20.70
2018-09-22T09:12:21.093Z,20.90
2018-09-22T09:14:49.943Z,19.50
2018-09-22T09:17:18.768Z,18.60
2018-09-22T09:19:47.608Z,18.70
2018-09-22T09:22:16.468Z,17.80
2018-09-22T09:24:45.370Z,17.90
2018-09-22T09:27:14.358Z,16.60
2018-09-22T09:29:43.228Z,16.40
2018-09-22T09:32:13.244Z,15.20
2018-09-22T09:34:42.187Z,14.70
2018-09-22T09:37:11.073Z,13.60
2018-09-22T09:39:40.013Z,14.40
2018-09-22T09:42:08.883Z,14.90
2018-09-22T09:44:37.790Z,15.50
2018-09-22T09:47:06.684Z,15.00
2018-09-22T09:49:35.621Z,12.80
2018-09-22T09:52:04.501Z,12.50
2018-09-22T09:54:33.511Z,12.50
2018-09-22T09:57:02.252Z,11.70
2018-09-22T09:59:31.119Z,11.80
2018-09-22T10:02:00.049Z,12.30
2018-09-22T10:04:29.004Z,13.60
2018-09-22T10:06:57.914Z,13.80
2018-09-22T10:09:26.833Z,14.60
2018-09-22T10:11:55.752Z,14.60
2018-09-22T10:14:24.625Z,14.40
2018-09-22T10:16:53.582Z,14.40
2018-09-22T10:19:22.445Z,14.00
2018-09-22T10:21:51.462Z,13.10
2018-09-22T10:24:20.370Z,13.00
2018-09-22T10:26:49.275Z,13.10
2018-09-22T10:29:18.222Z,12.90
2018-09-22T10:31:47.100Z,13.40
2018-09-22T10:34:15.955Z,13.10
2018-09-22T10:36:44.880Z,13.90
2018-09-22T10:39:13.763Z,12.40
2018-09-22T10:41:42.667Z,12.50
2018-09-22T10:44:11.719Z,12.70
2018-09-22T10:46:40.698Z,11.80
2018-09-22T10:49:09.641Z,12.50
2018-09-22T10:51:38.588Z,12.50
2018-09-22T10:54:07.626Z,12.50
2018-09-22T10:56:36.546Z,11.70
2018-09-22T10:59:05.721Z,11.90
2018-09-22T11:01:34.714Z,12.50
2018-09-22T11:04:03.619Z,12.40
2018-09-22T11:06:32.492Z,12.40
2018-09-22T11:09:01.363Z,12.50
2018-09-22T11:11:30.303Z,12.00
2018-09-22T11:13:59.234Z,11.50
2018-09-22T11:16:28.133Z,11.30
2018-09-22T11:18:57.033Z,12.40
2018-09-22T11:21:26.003Z,12.50
2018-09-22T11:23:54.929Z,12.60
2018-09-22T11:26:23.860Z,12.30
2018-09-22T11:28:52.864Z,11.80
2018-09-22T11:31:21.761Z,10.50
2018-09-22T11:33:50.676Z,7.90
2018-09-22T11:36:19.541Z,6.70
2018-09-22T11:38:48.527Z,5.60
2018-09-22T11:41:17.485Z,5.70
2018-09-22T11:43:47.314Z,5.70
2018-09-22T11:46:16.356Z,6.60
2018-09-22T11:48:45.224Z,7.50
2018-09-22T11:51:14.174Z,7.10
2018-09-22T11:53:43.016Z,6.50
2018-09-22T11:56:11.879Z,5.20
2018-09-22T11:58:40.782Z,5.70
2018-09-22T12:01:09.728Z,4.20
2018-09-22T12:03:38.624Z,5.00
2018-09-22T12:06:07.567Z,4.70
2018-09-22T12:08:36.419Z,6.40
2018-09-22T12:11:05.471Z,6.20
2018-09-22T12:13:34.348Z,6.00
2018-09-22T12:16:03.260Z,4.80
2018-09-22T12:18:32.233Z,2.60
2018-09-22T12:21:01.223Z,1.70
2018-09-22T12:23:30.054Z,1.00
2018-09-22T12:25:59.002Z,1.00
2018-09-22T12:28:27.868Z,1.00
2018-09-22T12:30:56.704Z,1.00
2018-09-22T12:33:25.622Z,2.40
2018-09-22T12:35:54.635Z,1.90
2018-09-22T12:38:23.555Z,3.90
2018-09-22T12:40:52.379Z,4.60
2018-09-22T12:43:21.236Z,4.30
2018-09-22T12:45:50.088Z,2.10
2018-09-22T12:48:18.969Z,1.00
2018-09-22T12:50:47.861Z,1.00
2018-09-22T12:53:16.837Z,1.00
2018-09-22T12:55:45.748Z,1.00
2018-09-22T12:58:14.593Z,1.00
2018-09-22T13:00:43.480Z,1.00
2018-09-22T13:03:12.342Z,1.00
2018-09-22T13:05:41.232Z,1.00
2018-09-22T13:08:10.054Z,1.00
2018-09-22T13:10:38.962Z,1.00
2018-09-22T13:13:07.812Z,1.00
2018-09-22T13:15:36.720Z,1.00
2018-09-22T13:18:05.658Z,1.00
2018-09-22T13:20:34.545Z,1.00
2018-09-22T13:23:03.388Z,1.00
2018-09-22T13:25:32.318Z,1.00
2018-09-22T13:28:01.226Z,1.00
2018-09-22T13:30:30.214Z,1.00
2018-09-22T13:32:59.105Z,1.00
2018-09-22T13:35:28.092Z,1.00
2018-09-22T13:37:57.097Z,1.00
2018-09-22T13:40:25.952Z,1.00
2018-09-22T13:42:54.843Z,1.00
2018-09-22T13:45:23.774Z,1.00
2018-09-22T13:47:52.652Z,1.00
2018-09-22T13:50:21.671Z,1.00
2018-09-22T13:52:50.791Z,1.00
2018-09-22T13:55:19.656Z,1.00
2018-09-22T13:57:48.562Z,1.00
2018-09-22T14:00:17.407Z,1.00
2018-09-22T14:02:46.270Z,1.00
2018-09-22T14:05:15.202Z,1.00
2018-09-22T14:07:44.126Z,1.00
2018-09-22T14:10:13.062Z,1.00
2018-09-22T14:12:41.945Z,1.00
2018-09-22T14:15:10.896Z,1.00
2018-09-22T14:17:39.722Z,1.00
2018-09-22T14:20:08.617Z,1.00
2018-09-22T14:22:37.496Z,1.00
2018-09-22T14:25:06.367Z,1.00
2018-09-22T14:27:35.303Z,1.00
2018-09-22T14:30:04.198Z,1.00
2018-09-22T14:32:33.072Z,1.00
2018-09-22T14:35:02.024Z,1.00
2018-09-22T14:37:30.868Z,1.00
2018-09-22T14:39:59.748Z,1.00
2018-09-22T14:42:28.668Z,1.00
2018-09-22T14:44:57.593Z,1.10
2018-09-22T14:47:26.624Z,1.10
2018-09-22T14:49:55.593Z,1.20
2018-09-22T14:52:24.459Z,1.60
2018-09-22T14:54:53.354Z,1.20
2018-09-22T14:57:22.217Z,1.00
2018-09-22T14:59:51.098Z,1.40
2018-09-22T15:02:19.950Z,1.40
2018-09-22T15:04:48.843Z,1.60
2018-09-22T15:07:17.773Z,1.80
2018-09-22T15:09:46.653Z,2.20
2018-09-22T15:12:15.542Z,1.70
2018-09-22T15:14:44.497Z,1.50
2018-09-22T15:17:13.440Z,1.20
2018-09-22T15:19:42.269Z,1.00
2018-09-22T15:22:11.188Z,1.00
2018-09-22T15:24:40.084Z,1.00
2018-09-22T15:27:08.980Z,1.00
2018-09-22T15:29:37.901Z,1.10
2018-09-22T15:32:07.072Z,1.10
2018-09-22T15:34:35.938Z,1.00
2018-09-22T15:37:04.805Z,1.30
2018-09-22T15:39:33.701Z,1.10
2018-09-22T15:42:02.575Z,2.40
2018-09-22T15:44:31.448Z,1.20
2018-09-22T15:47:00.274Z,1.50
2018-09-22T15:49:29.235Z,1.50
2018-09-22T15:51:58.163Z,1.60
2018-09-22T15:54:27.098Z,1.70
2018-09-22T15:56:55.983Z,2.10
2018-09-22T15:59:24.889Z,2.10
2018-09-22T16:01:53.784Z,2.00
2018-09-22T16:04:22.638Z,2.70
2018-09-22T16:06:51.529Z,2.60
2018-09-22T16:09:20.436Z,2.60
2018-09-22T16:11:49.331Z,2.80
2018-09-22T16:14:18.191Z,3.00
2018-09-22T16:16:47.078Z,2.90
2018-09-22T16:19:15.958Z,3.10
2018-09-22T16:21:44.870Z,3.20
2018-09-22T16:24:13.712Z,3.20
2018-09-22T16:26:42.582Z,3.10
2018-09-22T16:29:11.399Z,3.60
2018-09-22T16:31:40.272Z,3.60
2018-09-22T16:34:09.799Z,4.00
2018-09-22T16:36:38.680Z,4.30
2018-09-22T16:39:09.256Z,4.40
2018-09-22T16:41:38.194Z,5.40
2018-09-22T16:44:07.258Z,5.00
2018-09-22T16:46:36.235Z,5.10
2018-09-22T16:49:05.182Z,5.50
2018-09-22T16:51:34.042Z,5.30
2018-09-22T16:54:02.972Z,5.60
2018-09-22T16:56:31.844Z,5.80
2018-09-22T16:59:00.796Z,5.90
2018-09-22T17:01:29.753Z,6.00
2018-09-22T17:03:58.666Z,6.10
2018-09-22T17:06:27.511Z,6.20
2018-09-22T17:08:56.408Z,6.50
2018-09-22T17:11:25.279Z,6.70
2018-09-22T17:13:54.184Z,6.60
2018-09-22T17:16:23.137Z,6.70
2018-09-22T17:18:51.968Z,6.90
2018-09-22T17:21:20.860Z,6.90
2018-09-22T17:23:49.750Z,7.20
2018-09-22T17:26:18.648Z,7.30
2018-09-22T17:28:47.538Z,7.50
2018-09-22T17:31:16.479Z,7.50
2018-09-22T17:33:45.331Z,7.70
2018-09-22T17:36:14.260Z,7.80
2018-09-22T17:38:43.119Z,7.90
2018-09-22T17:41:12.045Z,8.10
2018-09-22T17:43:40.953Z,8.20
2018-09-22T17:46:09.904Z,8.20
2018-09-22T17:48:38.764Z,8.60
2018-09-22T17:51:08.000Z,8.80
2018-09-22T17:53:36.847Z,8.80
2018-09-22T17:56:05.735Z,9.00
2018-09-22T17:58:34.765Z,9.00
2018-09-22T18:01:03.666Z,9.20
2018-09-22T18:03:32.562Z,9.20
2018-09-22T18:06:01.523Z,9.30
2018-09-22T18:08:30.353Z,10.30
2018-09-22T18:10:59.234Z,9.60
2018-09-22T18:13:28.138Z,9.80
2018-09-22T18:15:57.007Z,9.60
2018-09-22T18:18:25.921Z,9.80
2018-09-22T18:20:54.813Z,9.90
2018-09-22T18:23:23.721Z,10.70
2018-09-22T18:25:52.569Z,10.60
2018-09-22T18:28:21.457Z,10.10
2018-09-22T18:30:50.343Z,10.20
2018-09-22T18:33:19.203Z,10.10
2018-09-22T18:35:48.101Z,10.00
2018-09-22T18:38:17.082Z,10.30
2018-09-22T18:40:46.197Z,10.60
2018-09-22T18:43:15.050Z,10.50
2018-09-22T18:45:43.907Z,10.50
2018-09-22T18:48:12.761Z,10.70
2018-09-22T18:50:41.713Z,11.20
2018-09-22T18:53:10.695Z,11.40
2018-09-22T18:55:39.569Z,11.40
2018-09-22T18:58:08.456Z,11.40
2018-09-22T19:00:37.328Z,11.40
2018-09-22T19:03:06.397Z,11.50
2018-09-22T19:05:35.370Z,11.40
2018-09-22T19:08:04.305Z,11.50
2018-09-22T19:10:33.203Z,11.50
2018-09-22T19:13:03.081Z,11.50
2018-09-22T19:15:35.723Z,11.60
2018-09-22T19:18:12.208Z,11.60
2018-09-22T19:20:47.822Z,11.60
2018-09-22T19:23:20.334Z,11.70
2018-09-22T19:25:52.732Z,12.00
2018-09-22T19:28:44.705Z,14.10
2018-09-22T19:31:17.470Z,14.00
2018-09-22T19:33:50.496Z,15.00
2018-09-22T19:36:21.326Z,15.70
2018-09-22T19:38:55.513Z,15.80
2018-09-22T19:41:27.872Z,17.30
2018-09-22T19:44:02.049Z,15.90
2018-09-22T19:46:34.505Z,16.70
2018-09-22T19:49:06.269Z,16.80
2018-09-22T19:51:38.154Z,16.80
2018-09-22T19:54:07.052Z,17.40
2018-09-22T19:56:35.911Z,17.70
2018-09-22T19:59:04.853Z,17.60
2018-09-22T20:01:33.704Z,18.20
2018-09-22T20:04:02.626Z,18.40
2018-09-22T20:06:31.503Z,18.60
2018-09-22T20:09:00.374Z,18.60
2018-09-22T20:11:29.295Z,19.60
2018-09-22T20:13:58.212Z,20.00
2018-09-22T20:16:27.100Z,20.00
2018-09-22T20:18:55.962Z,20.00
2018-09-22T20:21:24.881Z,20.00
2018-09-22T20:23:53.844Z,20.40
2018-09-22T20:26:22.712Z,23.00
2018-09-22T20:28:51.599Z,24.40
2018-09-22T20:31:20.520Z,24.80
2018-09-22T20:33:49.426Z,24.60
2018-09-22T20:36:18.412Z,25.80
2018-09-22T20:38:47.281Z,29.00
2018-09-22T20:41:16.905Z,30.40
2018-09-22T20:43:45.801Z,28.60
2018-09-22T20:46:14.766Z,30.30
2018-09-22T20:48:43.643Z,30.30
2018-09-22T20:51:12.549Z,33.00
2018-09-22T20:53:41.477Z,32.50
2018-09-22T20:56:10.363Z,34.00
2018-09-22T20:58:39.268Z,32.90
2018-09-22T21:01:08.178Z,32.60
2018-09-22T21:03:37.101Z,31.40
2018-09-22T21:06:05.996Z,32.50
2018-09-22T21:08:34.876Z,30.60
2018-09-22T21:11:03.763Z,30.60
2018-09-22T21:13:32.710Z,30.70
2018-09-22T21:16:01.536Z,30.60
2018-09-22T21:18:30.379Z,30.50
2018-09-22T21:20:59.237Z,30.60
2018-09-22T21:23:28.154Z,30.70
2018-09-22T21:25:57.056Z,31.50
2018-09-22T21:28:25.952Z,30.20
2018-09-22T21:30:54.905Z,30.70
2018-09-22T21:33:23.780Z,30.60
2018-09-22T21:35:52.697Z,30.90
2018-09-22T21:38:21.592Z,30.60
2018-09-22T21:40:50.466Z,32.00
2018-09-22T21:43:19.355Z,32.40
2018-09-22T21:45:48.328Z,33.50
2018-09-22T21:48:17.209Z,33.40
2018-09-22T21:50:46.148Z,34.20
2018-09-22T21:53:15.099Z,36.50
2018-09-22T21:55:44.001Z,37.60
2018-09-22T21:58:12.940Z,37.40
2018-09-22T22:00:41.803Z,39.40
2018-09-22T22:03:10.671Z,41.10
2018-09-22T22:05:39.540Z,42.10
2018-09-22T22:10:37.261Z,45.30
2018-09-22T22:13:06.119Z,47.70
2018-09-22T22:15:35.005Z,47.70
2018-09-22T22:18:03.912Z,48.70
2018-09-22T22:20:32.818Z,48.10
2018-09-22T22:23:01.700Z,49.10
2018-09-22T22:25:30.616Z,50.00
2018-09-22T22:27:59.529Z,52.00
2018-09-22T22:30:28.403Z,51.10
2018-09-22T22:32:57.276Z,52.70
2018-09-22T22:35:26.159Z,51.70
2018-09-22T22:37:55.010Z,51.90
2018-09-22T22:40:23.858Z,51.80
2018-09-22T22:42:52.728Z,51.40
2018-09-22T22:45:21.596Z,52.00
2018-09-22T22:47:50.559Z,52.50
2018-09-22T22:50:19.444Z,51.90
2018-09-22T22:52:48.346Z,53.00
2018-09-22T22:55:17.240Z,54.00
2018-09-22T22:57:46.233Z,52.90
2018-09-22T23:00:15.100Z,53.80
2018-09-22T23:02:44.069Z,54.30
2018-09-22T23:05:12.947Z,54.70
2018-09-22T23:07:41.844Z,55.50
2018-09-22T23:10:10.705Z,56.10
2018-09-22T23:12:39.582Z,56.70
2018-09-22T23:15:08.492Z,57.20
2018-09-22T23:17:37.398Z,57.70
2018-09-22T23:20:06.531Z,57.90
2018-09-22T23:22:35.406Z,57.90
2018-09-22T23:25:04.302Z,57.20
2018-09-22T23:27:33.135Z,56.90
2018-09-22T23:30:02.070Z,56.90
2018-09-22T23:32:31.002Z,57.50
2018-09-22T23:34:59.910Z,57.70
2018-09-22T23:37:28.825Z,57.30
2018-09-22T23:39:57.727Z,59.50
2018-09-22T23:42:26.620Z,58.90
2018-09-22T23:44:56.049Z,58.80
2018-09-22T23:47:24.910Z,60.80
2018-09-22T23:49:53.900Z,59.80
2018-09-22T23:52:22.865Z,60.00
2018-09-22T23:54:51.678Z,59.70
2018-09-22T23:57:20.552Z,59.30
2018-09-22T23:59:49.467Z,59.10
